Terminal Aerodrome Forecast
Issued by NWS

Home | Current Version | Previous Version | Graphics & Text | Print | Product List | Glossary On
Versions: 1 2 3 4 5 6 7 8 9 10 11 12 13 14
127
FTUS43 KMPX 171122
TAFRWF
TAF
KRWF 171122Z 1712/1812 34004KT P6SM FEW200
     FM171600 04004KT P6SM SCT250
     FM172000 06007KT P6SM SCT045
     FM180000 08007KT P6SM BKN040
     FM180500 08007KT P6SM BKN030
     FM180900 05006KT 4SM -SN BR OVC020=

USA.gov is the U.S. government's official web portal to all federal, state and local government web resources and services.